CheckWX is a tool to help pilots better visualize weather data.  It is not intended as a substitute for an official pre-flight weather briefing.

13:30:25 UTC

KPEO METAR
Penn Yan Airport
Penn Yan, New York, USA
Current

37 mins ago

KPEO 171253Z AUTO 00000KT 10SM CLR 14/12 A3004 RMK AO2 SLP171 T01390122
Observed
Jun-17 @ 12:53 UTC
Visibility
10 SM
Flight Rules
VFR
Cloud Levels
  • Clear skies
Temperature
14°C / 57°F
Dewpoint
12°C / 54°F
Humidity
88%
Altimeter
30.04" Hg
Pressure
1017.32 hPa
Previous

1 hour ago

KPEO 171219Z AUTO 22006KT 10SM FEW001 13/12 A3004 RMK AO2 T01280122
Observed
Jun-17 @ 12:19 UTC
Wind
  • 220° at 6 KTS
Visibility
10 SM
Flight Rules
VFR
Cloud Levels
  • Few at 100' AGL
Temperature
13°C / 55°F
Dewpoint
12°C / 54°F
Humidity
94%
Altimeter
30.04" Hg
Pressure
1017.32 hPa
Previous

2 hours ago

KPEO 171153Z AUTO 23004KT 10SM OVC001 12/12 A3003 RMK AO2 SLP170 70062 T01220117 10122 20106 51015
Observed
Jun-17 @ 11:53 UTC
Wind
  • 230° at 4 KTS
Visibility
10 SM
Flight Rules
LIFR
Cloud Levels
  • Overcast at 100' AGL
Temperature
12°C / 54°F
Dewpoint
12°C / 54°F
Humidity
100%
Altimeter
30.03" Hg
Pressure
1016.92 hPa
24 Hour Rain
0.62"